createdAt,value
2023-07-22T00:03:08.106Z,17.00
2023-07-22T00:09:10.578Z,17.00
2023-07-22T00:15:05.604Z,17.02
2023-07-22T00:20:32.462Z,17.00
2023-07-22T00:27:22.204Z,16.97
2023-07-22T00:34:00.013Z,16.87
2023-07-22T00:40:34.916Z,16.79
2023-07-22T00:46:02.932Z,16.69
2023-07-22T00:52:12.182Z,16.60
2023-07-22T00:58:36.088Z,16.49
2023-07-22T01:04:32.026Z,16.40
2023-07-22T01:10:40.821Z,16.30
2023-07-22T01:16:56.714Z,16.18
2023-07-22T01:23:05.712Z,16.08
2023-07-22T01:28:42.532Z,15.94
2023-07-22T01:34:31.098Z,15.83
2023-07-22T01:40:47.840Z,15.79
2023-07-22T01:47:04.060Z,15.80
2023-07-22T01:53:57.425Z,15.81
2023-07-22T01:59:56.611Z,15.81
2023-07-22T02:06:25.261Z,15.79
2023-07-22T02:13:14.099Z,15.77
2023-07-22T02:19:42.023Z,15.72
2023-07-22T02:26:00.965Z,15.66
2023-07-22T02:32:46.720Z,15.65
2023-07-22T02:38:41.599Z,15.66
2023-07-22T02:45:17.409Z,15.67
2023-07-22T02:51:21.943Z,15.71
2023-07-22T02:57:33.780Z,15.74
2023-07-22T03:04:18.571Z,15.74
2023-07-22T03:10:22.008Z,15.77
2023-07-22T03:16:05.744Z,15.82
2023-07-22T03:21:58.454Z,15.87
2023-07-22T03:28:21.499Z,15.91
2023-07-22T03:34:04.991Z,15.96
2023-07-22T03:40:19.110Z,15.99
2023-07-22T03:45:49.173Z,15.99
2023-07-22T03:51:19.958Z,15.99
2023-07-22T03:57:03.852Z,15.98
2023-07-22T04:03:09.994Z,16.01
2023-07-22T04:09:09.013Z,16.06
2023-07-22T04:15:19.521Z,16.10
2023-07-22T04:21:55.100Z,16.18
2023-07-22T04:28:47.159Z,16.24
2023-07-22T04:35:23.868Z,16.28
2023-07-22T04:41:15.297Z,16.32
2023-07-22T04:48:08.948Z,16.38
2023-07-22T04:54:35.045Z,16.48
2023-07-22T05:00:53.631Z,16.54
2023-07-22T05:06:37.885Z,16.63
2023-07-22T05:13:05.448Z,16.74
2023-07-22T05:18:46.118Z,16.80
2023-07-22T05:24:24.915Z,16.90
2023-07-22T05:30:34.236Z,17.06
2023-07-22T05:35:48.959Z,17.23
2023-07-22T05:40:57.694Z,17.39
2023-07-22T05:46:00.379Z,17.42
2023-07-22T05:51:50.841Z,17.47
2023-07-22T05:57:01.312Z,17.57
2023-07-22T06:03:16.677Z,17.68
2023-07-22T06:08:21.663Z,17.99
2023-07-22T06:14:20.442Z,18.24
2023-07-22T06:19:56.504Z,18.28
2023-07-22T06:26:00.658Z,18.23
2023-07-22T06:31:52.649Z,18.17
2023-07-22T06:37:41.495Z,18.14
2023-07-22T06:43:47.355Z,18.23
2023-07-22T06:50:02.330Z,18.33
2023-07-22T06:55:55.231Z,18.49
2023-07-22T07:01:19.903Z,18.61
2023-07-22T07:07:13.708Z,18.65
2023-07-22T07:13:43.039Z,18.71
2023-07-22T07:20:01.800Z,18.86
2023-07-22T07:26:12.191Z,19.02
2023-07-22T07:32:02.787Z,19.24
2023-07-22T07:37:42.678Z,19.50
2023-07-22T07:44:03.782Z,19.79
2023-07-22T07:49:51.645Z,20.13
2023-07-22T07:56:05.669Z,20.46
2023-07-22T08:02:11.360Z,20.63
2023-07-22T08:08:42.826Z,20.79
2023-07-22T08:15:06.050Z,21.02
2023-07-22T08:21:38.835Z,21.27
2023-07-22T08:27:51.109Z,21.51
2023-07-22T08:33:48.236Z,21.81
2023-07-22T08:40:00.734Z,22.25
2023-07-22T08:45:58.910Z,22.45
2023-07-22T08:51:38.359Z,22.66
2023-07-22T08:57:31.199Z,22.42
2023-07-22T09:02:41.333Z,22.14
2023-07-22T09:08:28.547Z,22.23
2023-07-22T09:13:38.250Z,22.43
2023-07-22T09:19:05.947Z,22.66
2023-07-22T09:24:30.718Z,22.85
2023-07-22T09:29:51.246Z,23.13
2023-07-22T09:35:53.012Z,23.35
2023-07-22T09:40:55.408Z,23.41
2023-07-22T09:46:34.377Z,23.30
2023-07-22T09:52:03.166Z,23.53
2023-07-22T09:57:23.772Z,23.99
2023-07-22T10:03:03.369Z,24.35
2023-07-22T10:34:55.794Z,24.15
2023-07-22T10:40:31.448Z,24.21
2023-07-22T10:45:40.520Z,24.38
2023-07-22T10:50:52.933Z,24.60
2023-07-22T10:56:07.836Z,24.79
2023-07-22T11:01:28.151Z,24.85
2023-07-22T11:06:33.693Z,25.03
2023-07-22T11:12:16.815Z,25.02
2023-07-22T11:17:30.943Z,24.82
2023-07-22T11:22:53.472Z,24.69
2023-07-22T11:27:58.900Z,24.58
2023-07-22T11:33:01.549Z,24.65
2023-07-22T11:38:13.023Z,24.67
2023-07-22T11:43:20.935Z,24.62
2023-07-22T11:48:23.695Z,24.60
2023-07-22T11:53:28.907Z,24.47
2023-07-22T11:58:41.530Z,24.45
2023-07-22T12:04:11.204Z,24.27
2023-07-22T12:09:24.751Z,24.10
2023-07-22T12:14:43.593Z,24.16
2023-07-22T12:20:13.537Z,24.58
2023-07-22T12:25:47.252Z,25.13
2023-07-22T12:30:58.692Z,25.25
2023-07-22T12:36:26.513Z,25.07
2023-07-22T12:42:03.472Z,24.87
2023-07-22T12:47:13.556Z,24.55
2023-07-22T12:52:39.278Z,24.27
2023-07-22T12:58:15.311Z,24.03
2023-07-22T13:03:38.732Z,23.97
2023-07-22T13:09:13.811Z,24.18
2023-07-22T13:14:32.695Z,24.51
2023-07-22T13:19:37.898Z,24.95
2023-07-22T13:24:55.259Z,25.07
2023-07-22T13:29:58.563Z,25.03
2023-07-22T13:35:00.827Z,24.89
2023-07-22T13:40:23.249Z,24.79
2023-07-22T13:45:36.961Z,24.77
2023-07-22T13:51:12.323Z,25.02
2023-07-22T13:56:19.707Z,25.51
2023-07-22T14:01:27.356Z,25.61
2023-07-22T14:06:37.730Z,25.57
2023-07-22T14:11:54.692Z,25.69
2023-07-22T14:17:08.950Z,25.79
2023-07-22T14:22:13.744Z,25.68
2023-07-22T14:27:27.021Z,25.56
2023-07-22T14:32:44.273Z,25.43
2023-07-22T14:37:50.041Z,25.56
2023-07-22T14:43:15.981Z,25.65
2023-07-22T14:48:18.603Z,25.74
2023-07-22T14:53:44.150Z,25.67
2023-07-22T14:59:17.948Z,25.68
2023-07-22T15:04:49.635Z,25.66
2023-07-22T15:10:39.503Z,25.58
2023-07-22T15:16:00.475Z,25.42
2023-07-22T15:21:05.615Z,25.43
2023-07-22T15:26:10.760Z,25.49
2023-07-22T15:31:13.431Z,25.47
2023-07-22T15:36:16.110Z,25.26
2023-07-22T15:41:39.198Z,25.07
2023-07-22T15:46:41.417Z,25.03
2023-07-22T15:51:56.965Z,24.96
2023-07-22T15:57:19.643Z,24.92
2023-07-22T16:02:45.104Z,24.85
2023-07-22T16:07:52.670Z,24.83
2023-07-22T16:12:58.194Z,24.79
2023-07-22T16:18:21.023Z,24.69
2023-07-22T16:23:58.867Z,24.63
2023-07-22T16:29:31.758Z,24.49
2023-07-22T16:34:57.341Z,24.18
2023-07-22T16:40:11.647Z,23.95
2023-07-22T16:45:16.375Z,23.79
2023-07-22T16:50:24.747Z,23.65
2023-07-22T16:55:41.693Z,23.54
2023-07-22T17:00:49.221Z,23.54
2023-07-22T17:05:57.611Z,23.65
2023-07-22T17:11:09.016Z,23.72
2023-07-22T17:16:14.598Z,23.76
2023-07-22T17:21:19.863Z,23.78
2023-07-22T17:26:25.345Z,23.92
2023-07-22T17:31:27.966Z,24.72
2023-07-22T17:36:33.374Z,25.08
2023-07-22T17:41:42.728Z,25.42
2023-07-22T17:46:50.283Z,25.16
2023-07-22T17:51:55.828Z,24.57
2023-07-22T17:56:58.609Z,24.03
2023-07-22T18:02:01.883Z,23.54
2023-07-22T18:07:13.356Z,23.12
2023-07-22T18:12:27.033Z,22.70
2023-07-22T18:18:11.396Z,22.25
2023-07-22T18:23:16.886Z,21.91
2023-07-22T18:28:29.379Z,21.61
2023-07-22T18:34:10.178Z,21.30
2023-07-22T18:39:25.350Z,21.00
2023-07-22T18:44:56.508Z,20.75
2023-07-22T18:49:59.342Z,20.47
2023-07-22T18:55:01.878Z,20.23
2023-07-22T19:00:05.333Z,20.00
2023-07-22T19:05:08.246Z,19.80
2023-07-22T19:10:11.676Z,19.60
2023-07-22T19:15:13.964Z,19.42
2023-07-22T19:20:25.754Z,19.24
2023-07-22T19:25:40.279Z,19.04
2023-07-22T19:30:42.715Z,18.86
2023-07-22T19:36:15.439Z,18.67
2023-07-22T19:41:17.934Z,18.49
2023-07-22T19:46:20.460Z,18.32
2023-07-22T19:51:40.018Z,18.16
2023-07-22T19:56:48.531Z,18.00
2023-07-22T20:01:53.720Z,17.84
2023-07-22T20:06:56.288Z,17.63
2023-07-22T20:12:31.075Z,17.41
2023-07-22T20:18:19.612Z,17.23
2023-07-22T20:23:37.077Z,17.11
2023-07-22T20:28:48.529Z,17.02
2023-07-22T20:33:53.771Z,16.90
2023-07-22T20:39:01.893Z,16.78
2023-07-22T20:44:08.335Z,16.71
2023-07-22T20:49:13.128Z,16.64
2023-07-22T20:54:34.598Z,16.54
2023-07-22T20:59:58.226Z,16.46
2023-07-22T21:05:17.042Z,16.39
2023-07-22T21:10:30.111Z,16.31
2023-07-22T21:15:42.741Z,16.22
2023-07-22T21:20:44.859Z,16.16
2023-07-22T21:25:57.293Z,16.09
2023-07-22T21:31:56.695Z,15.99
2023-07-22T21:37:09.788Z,15.88
2023-07-22T21:42:17.979Z,15.81
2023-07-22T21:47:40.686Z,15.74
2023-07-22T21:52:45.991Z,15.66
2023-07-22T21:58:09.319Z,15.58
2023-07-22T22:03:34.539Z,15.48
2023-07-22T22:08:47.400Z,15.42
2023-07-22T22:13:52.095Z,15.37
2023-07-22T22:19:49.350Z,15.33
2023-07-22T22:25:18.506Z,15.29
2023-07-22T22:30:26.181Z,15.23
2023-07-22T22:36:39.630Z,15.17
2023-07-22T22:43:15.402Z,15.10
2023-07-22T22:48:54.029Z,15.07
2023-07-22T22:54:20.166Z,15.02
2023-07-22T22:59:28.299Z,14.96
2023-07-22T23:04:47.086Z,14.88
2023-07-22T23:09:52.883Z,14.82
2023-07-22T23:15:07.652Z,14.75
2023-07-22T23:21:08.350Z,14.68
2023-07-22T23:26:30.280Z,14.61
2023-07-22T23:32:37.878Z,14.56
2023-07-22T23:37:58.896Z,14.53
2023-07-22T23:43:29.918Z,14.50
2023-07-22T23:49:07.998Z,14.47
2023-07-22T23:54:21.735Z,14.43
2023-07-22T23:59:59.101Z,14.37
